createdAt,value
2019-03-16T00:02:36.428Z,6.20
2019-03-16T00:07:41.736Z,6.20
2019-03-16T00:12:46.746Z,6.10
2019-03-16T00:17:52.150Z,6.20
2019-03-16T00:22:57.203Z,6.20
2019-03-16T00:28:02.565Z,6.20
2019-03-16T00:33:07.562Z,6.10
2019-03-16T00:38:12.671Z,6.10
2019-03-16T00:43:17.726Z,6.10
2019-03-16T00:48:23.086Z,6.10
2019-03-16T00:53:28.446Z,6.00
2019-03-16T00:58:33.469Z,6.00
2019-03-16T01:03:38.862Z,6.00
2019-03-16T01:08:44.225Z,6.00
2019-03-16T01:13:49.582Z,6.00
2019-03-16T01:18:54.942Z,6.00
2019-03-16T01:24:01.070Z,6.00
2019-03-16T01:29:06.279Z,6.00
2019-03-16T01:34:11.333Z,5.90
2019-03-16T01:39:16.386Z,5.90
2019-03-16T01:44:21.410Z,5.80
2019-03-16T01:49:28.310Z,5.80
2019-03-16T01:54:33.390Z,5.80
2019-03-16T01:59:38.752Z,5.80
2019-03-16T02:04:44.113Z,5.80
2019-03-16T02:09:49.164Z,5.70
2019-03-16T02:14:54.218Z,5.70
2019-03-16T02:19:59.274Z,5.60
2019-03-16T02:25:04.825Z,5.60
2019-03-16T02:30:10.647Z,5.60
2019-03-16T02:35:15.969Z,5.60
2019-03-16T02:40:21.027Z,5.70
2019-03-16T02:45:26.387Z,5.80
2019-03-16T02:50:31.442Z,5.80
2019-03-16T02:55:36.768Z,5.90
2019-03-16T03:00:41.925Z,6.00
2019-03-16T03:05:47.211Z,6.00
2019-03-16T03:10:52.586Z,6.00
2019-03-16T03:15:58.603Z,6.00
2019-03-16T03:21:04.775Z,5.90
2019-03-16T03:26:11.540Z,5.80
2019-03-16T03:31:16.574Z,5.70
2019-03-16T03:36:21.834Z,5.60
2019-03-16T03:41:27.204Z,5.60
2019-03-16T03:46:32.776Z,5.50
2019-03-16T03:51:38.224Z,5.40
2019-03-16T03:56:43.352Z,5.40
2019-03-16T04:01:48.637Z,5.40
2019-03-16T04:06:53.664Z,5.50
2019-03-16T04:11:59.053Z,5.50
2019-03-16T04:17:04.415Z,5.60
2019-03-16T04:22:09.465Z,5.60
2019-03-16T04:27:16.563Z,5.60
2019-03-16T04:32:21.422Z,5.70
2019-03-16T04:37:26.447Z,5.70
2019-03-16T04:42:31.497Z,5.70
2019-03-16T04:47:36.550Z,5.70
2019-03-16T04:52:41.941Z,5.70
2019-03-16T04:57:47.167Z,5.70
2019-03-16T05:02:52.362Z,5.80
2019-03-16T05:07:57.566Z,5.80
2019-03-16T05:13:02.635Z,5.80
2019-03-16T05:18:08.127Z,5.80
2019-03-16T05:23:13.490Z,5.80
2019-03-16T05:28:18.543Z,5.80
2019-03-16T05:33:23.572Z,5.80
2019-03-16T05:38:28.723Z,5.90
2019-03-16T05:43:34.012Z,6.00
2019-03-16T05:48:39.065Z,6.00
2019-03-16T05:53:44.118Z,6.10
2019-03-16T05:58:49.180Z,6.10
2019-03-16T06:03:54.190Z,6.10
2019-03-16T06:08:59.250Z,6.30
2019-03-16T06:14:04.331Z,6.40
2019-03-16T06:19:09.692Z,6.40
2019-03-16T06:24:14.816Z,6.20
2019-03-16T06:29:20.111Z,6.00
2019-03-16T06:34:25.468Z,5.70
2019-03-16T06:39:31.138Z,5.50
2019-03-16T06:44:36.269Z,5.40
2019-03-16T06:49:41.322Z,5.30
2019-03-16T06:54:46.602Z,5.30
2019-03-16T06:59:51.657Z,5.30
2019-03-16T07:04:56.709Z,5.30
2019-03-16T07:10:02.071Z,5.20
2019-03-16T07:15:07.695Z,5.20
2019-03-16T07:20:13.274Z,5.20
2019-03-16T07:25:18.460Z,5.20
2019-03-16T07:30:23.483Z,5.10
2019-03-16T07:35:28.569Z,5.10
2019-03-16T07:40:33.930Z,5.20
2019-03-16T07:45:39.054Z,5.20
2019-03-16T07:50:44.108Z,5.30
2019-03-16T07:55:49.400Z,5.40
2019-03-16T08:00:54.757Z,5.40
2019-03-16T08:05:59.811Z,5.50
2019-03-16T08:11:04.797Z,5.50
2019-03-16T08:16:09.917Z,5.60
2019-03-16T08:21:15.277Z,5.70
2019-03-16T08:26:20.508Z,5.60
2019-03-16T08:31:25.697Z,5.70
2019-03-16T08:36:30.746Z,5.70
2019-03-16T08:41:35.874Z,5.70
2019-03-16T08:46:40.923Z,5.80
2019-03-16T08:51:45.979Z,5.80
2019-03-16T08:56:50.993Z,5.90
2019-03-16T09:01:56.321Z,5.90
2019-03-16T09:07:01.342Z,5.90
2019-03-16T09:12:06.735Z,5.90
2019-03-16T09:17:11.789Z,5.90
2019-03-16T09:22:17.149Z,5.90
2019-03-16T09:27:30.971Z,5.80
2019-03-16T09:32:29.099Z,5.80
2019-03-16T09:37:34.225Z,5.80
2019-03-16T09:42:39.255Z,5.90
2019-03-16T09:47:44.571Z,5.90
2019-03-16T09:52:51.328Z,5.90
2019-03-16T09:57:58.186Z,6.00
2019-03-16T10:03:03.414Z,6.00
2019-03-16T10:08:08.775Z,6.00
2019-03-16T10:13:13.792Z,6.00
2019-03-16T10:18:19.162Z,5.80
2019-03-16T10:23:24.243Z,5.80
2019-03-16T10:28:29.301Z,5.80
2019-03-16T10:33:34.429Z,5.80
2019-03-16T10:38:39.473Z,5.80
2019-03-16T10:43:45.639Z,5.80
2019-03-16T10:48:52.395Z,6.00
2019-03-16T10:53:57.509Z,6.10
2019-03-16T10:59:02.553Z,6.10
2019-03-16T11:04:09.636Z,6.30
2019-03-16T11:09:14.610Z,6.50
2019-03-16T11:14:19.644Z,6.70
2019-03-16T11:19:24.694Z,6.90
2019-03-16T11:24:30.788Z,7.00
2019-03-16T11:29:36.091Z,7.10
2019-03-16T11:34:41.137Z,7.40
2019-03-16T11:39:46.262Z,7.60
2019-03-16T11:44:53.395Z,8.00
2019-03-16T11:49:58.452Z,8.20
2019-03-16T11:55:03.557Z,8.50
2019-03-16T12:00:09.243Z,8.80
2019-03-16T12:05:20.050Z,9.10
2019-03-16T12:10:25.115Z,9.30
2019-03-16T12:15:32.650Z,9.50
2019-03-16T12:20:38.908Z,9.50
2019-03-16T12:25:44.273Z,9.50
2019-03-16T12:30:49.509Z,9.50
2019-03-16T12:35:54.555Z,9.50
2019-03-16T12:40:59.706Z,9.60
2019-03-16T12:46:06.614Z,9.50
2019-03-16T12:51:13.399Z,9.60
2019-03-16T12:56:19.132Z,9.50
2019-03-16T13:01:24.155Z,9.60
2019-03-16T13:06:29.612Z,9.60
2019-03-16T13:11:34.640Z,9.60
2019-03-16T13:16:40.408Z,9.70
2019-03-16T13:21:45.697Z,9.80
2019-03-16T13:26:50.754Z,9.80
2019-03-16T13:31:57.952Z,10.00
2019-03-16T13:37:04.544Z,10.00
2019-03-16T13:42:09.551Z,10.00
2019-03-16T13:47:16.362Z,10.00
2019-03-16T13:52:21.339Z,10.00
2019-03-16T13:57:26.468Z,10.10
2019-03-16T14:02:31.624Z,10.00
2019-03-16T14:07:36.709Z,10.10
2019-03-16T14:12:41.927Z,10.10
2019-03-16T14:17:49.038Z,10.20
2019-03-16T14:22:54.095Z,10.20
2019-03-16T14:27:59.143Z,10.10
2019-03-16T14:33:04.198Z,10.10
2019-03-16T14:38:09.490Z,10.10
2019-03-16T14:43:15.462Z,10.10
2019-03-16T14:48:20.492Z,10.10
2019-03-16T14:53:25.569Z,10.00
2019-03-16T14:58:33.174Z,10.10
2019-03-16T15:03:38.403Z,10.30
2019-03-16T15:08:44.571Z,10.30
2019-03-16T15:13:49.778Z,10.40
2019-03-16T15:18:54.816Z,10.40
2019-03-16T15:23:59.854Z,10.40
2019-03-16T15:29:05.880Z,10.30
2019-03-16T15:34:11.221Z,10.30
2019-03-16T15:39:16.244Z,10.20
2019-03-16T15:44:21.326Z,10.30
2019-03-16T15:49:26.356Z,10.40
2019-03-16T15:54:31.402Z,10.40
2019-03-16T15:59:36.539Z,10.40
2019-03-16T16:04:41.616Z,10.40
2019-03-16T16:09:46.905Z,10.40
2019-03-16T16:14:53.682Z,10.50
2019-03-16T16:19:58.658Z,10.50
2019-03-16T16:25:03.783Z,10.50
2019-03-16T16:30:21.385Z,10.50
2019-03-16T16:35:26.472Z,10.50
2019-03-16T16:40:31.685Z,10.50
2019-03-16T16:45:36.709Z,10.60
2019-03-16T16:50:41.769Z,10.60
2019-03-16T16:55:47.089Z,10.60
2019-03-16T17:00:52.218Z,10.60
2019-03-16T17:05:57.301Z,10.50
2019-03-16T17:11:02.418Z,10.50
2019-03-16T17:16:07.462Z,10.50
2019-03-16T17:21:12.515Z,10.50
2019-03-16T17:26:17.541Z,10.50
2019-03-16T17:31:22.583Z,10.60
2019-03-16T17:36:27.610Z,10.60
2019-03-16T17:41:32.698Z,10.50
2019-03-16T17:46:37.761Z,10.50
2019-03-16T17:51:42.802Z,10.50
2019-03-16T17:56:47.833Z,10.40
2019-03-16T18:01:54.863Z,10.50
2019-03-16T18:06:59.595Z,10.50
2019-03-16T18:12:04.646Z,10.50
2019-03-16T18:17:09.700Z,10.50
2019-03-16T18:22:14.753Z,10.50
2019-03-16T18:27:19.851Z,10.50
2019-03-16T18:32:24.896Z,10.40
2019-03-16T18:37:29.954Z,10.50
2019-03-16T18:42:34.970Z,10.50
2019-03-16T18:47:40.095Z,10.50
2019-03-16T18:52:45.170Z,10.50
2019-03-16T18:57:50.291Z,10.50
2019-03-16T19:02:55.399Z,10.50
2019-03-16T19:08:00.473Z,10.40
2019-03-16T19:13:05.501Z,10.40
2019-03-16T19:18:10.522Z,10.40
2019-03-16T19:23:15.611Z,10.40
2019-03-16T19:28:20.637Z,10.50
2019-03-16T19:33:25.670Z,10.50
2019-03-16T19:38:30.750Z,10.50
2019-03-16T19:43:35.826Z,10.50
2019-03-16T19:48:40.909Z,10.50
2019-03-16T19:53:45.947Z,10.50
2019-03-16T19:59:00.153Z,10.50
2019-03-16T20:03:57.680Z,10.50
2019-03-16T20:09:02.737Z,10.60
2019-03-16T20:14:07.826Z,10.60
2019-03-16T20:19:12.850Z,10.70
2019-03-16T20:24:17.945Z,10.70
2019-03-16T20:29:23.025Z,10.70
2019-03-16T20:34:28.059Z,10.70
2019-03-16T20:39:33.081Z,10.70
2019-03-16T20:44:38.174Z,10.60
2019-03-16T20:49:43.174Z,10.60
2019-03-16T20:54:48.217Z,10.60
2019-03-16T20:59:53.282Z,10.60
2019-03-16T21:04:58.381Z,10.60
2019-03-16T21:10:03.463Z,10.60
2019-03-16T21:15:09.610Z,10.60
2019-03-16T21:20:14.761Z,10.50
2019-03-16T21:25:19.783Z,10.50
2019-03-16T21:30:24.805Z,10.40
2019-03-16T21:35:29.829Z,10.30
2019-03-16T21:40:34.850Z,10.40
2019-03-16T21:45:39.900Z,10.20
2019-03-16T21:50:45.003Z,10.20
2019-03-16T21:55:50.031Z,10.00
2019-03-16T22:00:55.073Z,10.00
2019-03-16T22:06:00.125Z,10.00
2019-03-16T22:11:05.624Z,10.10
2019-03-16T22:16:11.834Z,10.10
2019-03-16T22:21:16.990Z,10.20
2019-03-16T22:26:22.028Z,10.20
2019-03-16T22:31:27.114Z,10.30
2019-03-16T22:36:32.172Z,10.20
2019-03-16T22:41:37.242Z,10.30
2019-03-16T22:46:42.385Z,10.30
2019-03-16T22:51:47.514Z,10.30
2019-03-16T22:56:52.542Z,10.30
2019-03-16T23:01:57.643Z,10.30
2019-03-16T23:07:02.714Z,10.30
2019-03-16T23:12:09.608Z,10.30
2019-03-16T23:17:15.075Z,10.20
2019-03-16T23:22:20.101Z,10.20
2019-03-16T23:27:25.289Z,10.30
2019-03-16T23:32:31.142Z,10.30
2019-03-16T23:37:36.195Z,10.40
2019-03-16T23:42:41.286Z,10.40
2019-03-16T23:47:46.329Z,10.40
2019-03-16T23:52:51.408Z,10.50
2019-03-16T23:57:56.585Z,10.40
